| Date | Time | Temp. (oF) | Dew Point (oF) | Rel. Hum. (%) | Press. (in.) | Wind Dir. | Wind Speed (mph) | Hourly Rainfall (in.) |
|
|---|---|---|---|---|---|---|---|---|---|
| 1 | 09/04 | 00:00 | 75 | 72 | 91 | 29.95 | S | 0 | 0.00 |
| 2 | 09/03 | 23:00 | 76 | 72 | 90 | 29.96 | SSW | 3 | 0.00 |
| 3 | 09/03 | 22:00 | 77 | 72 | 87 | 29.97 | SSW | 3 | 0.00 |
| 4 | 09/03 | 21:00 | 78 | 72 | 84 | 29.97 | SSW | 4 | 0.00 |
| 5 | 09/03 | 20:00 | 79 | 72 | 81 | 29.96 | S | 8 | 0.00 |
| 6 | 09/03 | 19:00 | 83 | 73 | 74 | 29.94 | S | 5 | 0.00 |
| 7 | 09/03 | 18:00 | 86 | 73 | 66 | 29.94 | S | 9 | 0.00 |
| 8 | 09/03 | 17:00 | 87 | 73 | 65 | 29.93 | S | 9 | 0.00 |
| 9 | 09/03 | 16:00 | 86 | 72 | 65 | 29.95 | S | 7 | 0.00 |
| 10 | 09/03 | 15:00 | 85 | 72 | 67 | 29.98 | SSE | 5 | 0.00 |
| 11 | 09/03 | 14:00 | 81 | 70 | 70 | 30.01 | SSE | 3 | 0.00 |
| 12 | 09/03 | 13:00 | 78 | 68 | 74 | 30.04 | SSW | 8 | 0.00 |
| 13 | 09/03 | 12:00 | 75 | 68 | 80 | 30.06 | S | 4 | 0.00 |
| 14 | 09/03 | 11:00 | 73 | 67 | 84 | 30.07 | S | 2 | 0.00 |
| 15 | 09/03 | 10:00 | 67 | 67 | 100 | 30.08 | S | 3 | 0.00 |
| 16 | 09/03 | 09:00 | 63 | 63 | 100 | 30.09 | NW | 0 | 0.00 |
| 17 | 09/03 | 08:00 | 59 | 59 | 100 | 30.09 | SSE | 1 | 0.00 |
| 18 | 09/03 | 07:00 | 58 | 58 | 100 | 30.07 | W | 0 | 0.00 |
| 19 | 09/03 | 06:00 | 58 | 58 | 100 | 30.07 | WSW | 0 | 0.00 |
| 20 | 09/03 | 05:00 | 60 | 59 | 99 | 30.07 | WSW | 0 | 0.00 |
| 21 | 09/03 | 04:00 | 62 | 62 | 100 | 30.07 | WSW | 0 | 0.00 |
| 22 | 09/03 | 03:00 | 63 | 63 | 100 | 30.07 | E | 0 | 0.00 |
| 23 | 09/03 | 02:00 | 63 | 63 | 100 | 30.08 | E | 0 | 0.00 |
| 24 | 09/03 | 01:00 | 63 | 62 | 99 | 30.08 | E | 0 | 0.00 |